createdAt,value
2023-05-06T00:03:13.611Z,85.13
2023-05-06T00:08:17.152Z,86.78
2023-05-06T00:13:19.138Z,85.93
2023-05-06T00:18:22.778Z,87.29
2023-05-06T00:23:26.062Z,86.00
2023-05-06T00:28:28.013Z,86.51
2023-05-06T00:33:29.959Z,86.90
2023-05-06T00:38:33.265Z,86.85
2023-05-06T00:43:35.232Z,88.42
2023-05-06T00:48:37.527Z,89.55
2023-05-06T00:53:41.058Z,89.35
2023-05-06T00:58:43.941Z,90.78
2023-05-06T01:03:46.999Z,90.25
2023-05-06T01:09:08.690Z,91.16
2023-05-06T01:14:17.014Z,92.33
2023-05-06T01:19:34.858Z,92.39
2023-05-06T01:24:39.962Z,92.85
2023-05-06T01:29:44.106Z,93.54
2023-05-06T01:34:55.173Z,93.61
2023-05-06T01:40:00.802Z,94.11
2023-05-06T01:45:07.059Z,93.87
2023-05-06T01:50:10.236Z,94.50
2023-05-06T01:55:13.592Z,94.67
2023-05-06T02:00:16.464Z,94.62
2023-05-06T02:05:18.747Z,94.40
2023-05-06T02:10:22.186Z,95.52
2023-05-06T02:15:24.125Z,96.33
2023-05-06T02:20:26.289Z,96.81
2023-05-06T02:25:29.580Z,96.60
2023-05-06T02:30:32.252Z,97.06
2023-05-06T02:35:34.201Z,97.17
2023-05-06T02:40:37.463Z,96.90
2023-05-06T02:45:39.387Z,96.93
2023-05-06T02:50:41.448Z,98.00
2023-05-06T02:55:44.808Z,98.60
2023-05-06T03:00:46.635Z,99.48
2023-05-06T03:05:48.580Z,100.00
2023-05-06T03:10:52.356Z,100.00
2023-05-06T03:15:54.587Z,100.00
2023-05-06T03:20:56.510Z,100.00
2023-05-06T03:25:59.762Z,99.04
2023-05-06T03:31:01.631Z,98.53
2023-05-06T03:36:04.085Z,97.19
2023-05-06T03:41:07.549Z,97.46
2023-05-06T03:46:09.509Z,96.89
2023-05-06T03:51:11.561Z,95.83
2023-05-06T03:56:18.042Z,96.08
2023-05-06T04:01:20.563Z,96.33
2023-05-06T04:06:22.629Z,96.47
2023-05-06T04:11:27.067Z,95.42
2023-05-06T04:16:30.650Z,95.66
2023-05-06T04:21:33.091Z,94.81
2023-05-06T04:26:36.628Z,94.63
2023-05-06T04:31:38.931Z,94.42
2023-05-06T04:36:41.028Z,91.27
2023-05-06T04:41:44.501Z,92.70
2023-05-06T04:46:47.445Z,87.25
2023-05-06T04:51:49.246Z,81.75
2023-05-06T04:56:52.539Z,80.24
2023-05-06T05:01:54.703Z,83.07
2023-05-06T05:06:57.652Z,81.80
2023-05-06T05:12:02.564Z,80.79
2023-05-06T05:17:04.627Z,77.00
2023-05-06T05:22:06.605Z,74.97
2023-05-06T05:27:10.897Z,72.83
2023-05-06T05:32:12.869Z,70.74
2023-05-06T05:37:14.819Z,70.90
2023-05-06T05:42:18.182Z,71.83
2023-05-06T05:47:20.602Z,72.17
2023-05-06T05:52:22.615Z,69.84
2023-05-06T05:57:26.090Z,67.94
2023-05-06T06:02:28.098Z,66.46
2023-05-06T06:07:30.204Z,66.82
2023-05-06T06:12:33.548Z,66.57
2023-05-06T06:17:35.732Z,65.80
2023-05-06T06:22:37.991Z,65.16
2023-05-06T06:27:41.340Z,68.05
2023-05-06T06:32:49.251Z,63.63
2023-05-06T06:37:51.689Z,58.48
2023-05-06T06:42:55.137Z,56.23
2023-05-06T06:47:57.370Z,55.03
2023-05-06T06:52:59.801Z,53.92
2023-05-06T06:58:03.277Z,54.50
2023-05-06T07:03:05.295Z,55.26
2023-05-06T07:08:09.591Z,54.20
2023-05-06T07:13:13.056Z,52.84
2023-05-06T07:18:15.282Z,50.83
2023-05-06T07:23:17.334Z,52.03
2023-05-06T07:28:20.924Z,51.11
2023-05-06T07:33:22.964Z,50.11
2023-05-06T07:38:24.949Z,51.26
2023-05-06T07:43:28.262Z,49.54
2023-05-06T07:48:30.828Z,46.63
2023-05-06T07:53:33.016Z,47.84
2023-05-06T07:58:36.329Z,46.51
2023-05-06T08:03:38.532Z,45.36
2023-05-06T08:08:40.637Z,43.57
2023-05-06T08:13:43.939Z,43.85
2023-05-06T08:18:45.928Z,43.91
2023-05-06T08:23:47.878Z,48.14
2023-05-06T08:28:51.225Z,48.85
2023-05-06T08:33:54.648Z,49.18
2023-05-06T08:38:57.053Z,50.79
2023-05-06T08:44:01.690Z,51.45
2023-05-06T08:49:03.710Z,52.97
2023-05-06T08:54:05.990Z,52.77
2023-05-06T08:59:09.401Z,56.81
2023-05-06T09:04:12.512Z,60.81
2023-05-06T09:09:15.016Z,62.13
2023-05-06T09:14:18.390Z,62.28
2023-05-06T09:19:21.992Z,61.93
2023-05-06T09:24:24.134Z,58.70
2023-05-06T09:29:27.403Z,63.10
2023-05-06T09:34:29.488Z,65.76
2023-05-06T09:39:31.489Z,66.63
2023-05-06T09:44:34.946Z,66.74
2023-05-06T09:49:37.088Z,67.83
2023-05-06T09:54:39.995Z,69.60
2023-05-06T09:59:43.764Z,74.54
2023-05-06T10:04:48.392Z,77.18
2023-05-06T10:09:53.298Z,79.88
2023-05-06T10:15:00.201Z,88.07
2023-05-06T10:20:05.257Z,94.09
2023-05-06T10:25:16.760Z,96.92
2023-05-06T10:30:20.896Z,100.00
2023-05-06T10:35:38.372Z,92.57
2023-05-06T10:40:40.877Z,96.34
2023-05-06T10:51:27.612Z,94.56
2023-05-06T10:56:31.955Z,93.52
2023-05-06T11:01:35.390Z,89.41
2023-05-06T11:06:44.412Z,90.99
2023-05-06T11:11:48.351Z,90.48
2023-05-06T11:16:52.046Z,90.32
2023-05-06T11:21:57.407Z,92.12
2023-05-06T11:27:00.375Z,89.85
2023-05-06T11:32:03.647Z,88.54
2023-05-06T11:37:07.868Z,89.66
2023-05-06T11:42:09.952Z,88.93
2023-05-06T11:47:11.979Z,87.00
2023-05-06T11:52:15.259Z,85.37
2023-05-06T11:57:17.387Z,86.16
2023-05-06T12:02:20.269Z,85.74
2023-05-06T12:07:23.953Z,85.37
2023-05-06T12:12:27.296Z,87.42
2023-05-06T12:17:29.410Z,88.33
2023-05-06T12:22:33.272Z,88.09
2023-05-06T12:27:35.915Z,90.61
2023-05-06T12:32:52.771Z,89.14
2023-05-06T12:37:56.715Z,89.22
2023-05-06T12:42:58.795Z,85.33
2023-05-06T12:48:05.680Z,83.63
2023-05-06T12:53:11.118Z,81.65
2023-05-06T12:58:17.136Z,80.38
2023-05-06T13:03:19.338Z,88.04
2023-05-06T13:08:22.663Z,90.82
2023-05-06T13:13:24.771Z,95.97
2023-05-06T13:18:26.786Z,93.02
2023-05-06T13:23:31.319Z,89.12
2023-05-06T13:28:33.754Z,88.73
2023-05-06T13:33:35.660Z,85.64
2023-05-06T13:38:39.324Z,84.43
2023-05-06T13:43:41.283Z,83.37
2023-05-06T13:48:43.224Z,82.77
2023-05-06T13:53:46.556Z,82.30
2023-05-06T13:58:48.611Z,79.55
2023-05-06T14:03:50.763Z,77.04
2023-05-06T14:08:54.085Z,76.21
2023-05-06T14:13:57.212Z,72.50
2023-05-06T14:18:59.363Z,68.49
2023-05-06T14:24:04.259Z,71.51
2023-05-06T14:29:07.112Z,68.87
2023-05-06T14:34:09.247Z,67.61
2023-05-06T14:39:12.686Z,71.81
2023-05-06T14:44:15.244Z,76.48
2023-05-06T14:49:17.201Z,78.47
2023-05-06T14:54:20.626Z,77.39
2023-05-06T14:59:22.897Z,75.68
2023-05-06T15:04:24.767Z,77.29
2023-05-06T15:09:28.408Z,81.36
2023-05-06T15:14:30.361Z,82.77
2023-05-06T15:19:33.444Z,83.91
2023-05-06T15:24:36.843Z,83.97
2023-05-06T15:29:41.560Z,82.06
2023-05-06T15:34:43.579Z,83.84
2023-05-06T15:39:47.800Z,84.21
2023-05-06T15:44:51.454Z,81.68
2023-05-06T15:49:55.030Z,80.86
2023-05-06T15:55:00.088Z,79.81
2023-05-06T16:00:02.163Z,79.31
2023-05-06T16:05:04.693Z,73.65
2023-05-06T16:10:09.035Z,74.87
2023-05-06T16:15:11.432Z,77.54
2023-05-06T16:20:13.738Z,75.46
2023-05-06T16:25:17.302Z,74.46
2023-05-06T16:30:19.307Z,72.36
2023-05-06T16:35:21.316Z,66.26
2023-05-06T16:40:24.681Z,67.20
2023-05-06T16:45:26.698Z,72.15
2023-05-06T16:50:28.878Z,74.90
2023-05-06T16:55:32.325Z,74.99
2023-05-06T17:00:34.373Z,71.37
2023-05-06T17:05:36.464Z,67.95
2023-05-06T17:10:39.758Z,70.14
2023-05-06T17:15:41.774Z,74.05
2023-05-06T17:20:54.215Z,77.57
2023-05-06T17:25:59.586Z,80.04
2023-05-06T17:31:01.576Z,79.37
2023-05-06T17:36:03.907Z,80.58
2023-05-06T17:41:07.260Z,81.58
2023-05-06T17:46:09.542Z,82.44
2023-05-06T17:51:11.642Z,81.92
2023-05-06T17:56:15.024Z,83.36
2023-05-06T18:01:17.025Z,83.40
2023-05-06T18:06:19.007Z,84.49
2023-05-06T18:11:22.432Z,84.71
2023-05-06T18:16:24.537Z,85.45
2023-05-06T18:21:27.696Z,85.95
2023-05-06T18:26:43.969Z,84.73
2023-05-06T18:31:48.106Z,84.59
2023-05-06T18:36:50.245Z,83.58
2023-05-06T18:41:53.570Z,84.39
2023-05-06T18:46:55.777Z,85.28
2023-05-06T18:51:57.797Z,85.57
2023-05-06T18:57:02.312Z,86.40
2023-05-06T19:02:05.778Z,85.42
2023-05-06T19:07:07.936Z,85.18
2023-05-06T19:12:11.499Z,84.81
2023-05-06T19:17:14.322Z,84.65
2023-05-06T19:22:16.271Z,83.53
2023-05-06T19:27:19.577Z,83.85
2023-05-06T19:32:21.549Z,84.64
2023-05-06T19:37:23.569Z,85.35
2023-05-06T19:42:26.906Z,85.00
2023-05-06T19:47:29.504Z,85.51
2023-05-06T19:52:33.358Z,85.01
2023-05-06T19:57:37.331Z,85.65
2023-05-06T20:02:40.278Z,86.86
2023-05-06T20:07:42.405Z,87.19
2023-05-06T20:12:45.803Z,86.95
2023-05-06T20:17:47.961Z,86.15
2023-05-06T20:22:50.037Z,86.99
2023-05-06T20:27:53.400Z,86.95
2023-05-06T20:32:55.398Z,87.21
2023-05-06T20:37:57.422Z,88.30
2023-05-06T20:43:00.970Z,88.18
2023-05-06T20:48:03.087Z,88.93
2023-05-06T20:53:05.147Z,89.18
2023-05-06T20:58:08.618Z,90.07
2023-05-06T21:03:10.809Z,91.20
2023-05-06T21:08:13.259Z,91.78
2023-05-06T21:13:16.644Z,92.27
2023-05-06T21:18:18.875Z,91.40
2023-05-06T21:23:21.115Z,92.07
2023-05-06T21:28:24.569Z,90.66
2023-05-06T21:33:26.549Z,91.27
2023-05-06T21:38:28.551Z,90.31
2023-05-06T21:43:33.294Z,90.84
2023-05-06T21:48:35.686Z,90.62
2023-05-06T21:53:37.660Z,90.80
2023-05-06T21:58:40.969Z,89.44
2023-05-06T22:03:44.056Z,90.33
2023-05-06T22:08:46.186Z,89.85
2023-05-06T22:13:50.859Z,89.64
2023-05-06T22:18:53.090Z,89.37
2023-05-06T22:23:55.016Z,90.10
2023-05-06T22:28:58.461Z,90.40
2023-05-06T22:34:04.397Z,89.64
2023-05-06T22:39:06.643Z,89.27
2023-05-06T22:44:10.181Z,91.04
2023-05-06T22:49:12.140Z,91.89
2023-05-06T22:54:14.099Z,91.20
2023-05-06T22:59:17.409Z,90.51
2023-05-06T23:04:19.404Z,91.76
2023-05-06T23:09:21.528Z,92.45
2023-05-06T23:14:24.992Z,92.16
2023-05-06T23:19:26.972Z,92.95
2023-05-06T23:24:28.923Z,92.97
2023-05-06T23:29:32.214Z,93.78
2023-05-06T23:34:34.203Z,93.72
2023-05-06T23:39:36.426Z,93.51
2023-05-06T23:44:39.962Z,94.51
2023-05-06T23:49:41.973Z,93.41
2023-05-06T23:54:43.927Z,93.13
2023-05-06T23:59:47.234Z,93.55
